KSFZ/SFZ METAR and TAF weather

Enter ICAO airport designator
Station Type Date Time Source
KSFZ METAR 2022/07/01 00:56 UTC NOAA

KSFZ 010056Z AUTO 00000KT 10SM CLR 19/15 A3014 RMK AO2 SLP204 T01940150 $


Station Type Date Time Source
KSFZ Decoded METAR 2022/07/01 00:56 UTC NOAA

Pawtucket, North Central State Airport, RI, United States (KSFZ) 41-55N 071-30W
Jun 30, 2022 - 08:56 PM EDT / 2022.07.01 0056 UTC
Wind: Calm:0
Visibility: 10 mile(s):0
Sky conditions: clear
Temperature: 66.9 F (19.4 C)
Dew Point: 59.0 F (15.0 C)
Relative Humidity: 75%
Pressure (altimeter): 30.14 in. Hg (1020 hPa)
ob: KSFZ 010056Z AUTO 00000KT 10SM CLR 19/15 A3014 RMK AO2 SLP204 T01940150
cycle: 1

Station Type Date Time Source
KSFZ TAF UTC NOAA

Error!

Example: see airport list